Time;durP1;ratioP1;P1;durP2;ratioP2;P2;SDS_P1;SDS_P2;PMS_P1;PMS_P2;Temp;Humidity;BMP_temperature;BMP_pressure;BME280_temperature;BME280_humidity;BME280_pressure;Samples;Min_cycle;Max_cycle;Signal;HPM_P1;HPM_P2
2022/10/27 00:02:16;;;;;;;4.93;4.43;;;12.10;99.90;;;;;;5076010;28;20577;-92
2022/10/27 00:04:42;;;;;;;6.43;4.90;;;12.10;99.90;;;;;;5079518;28;20182;-94
2022/10/27 00:07:08;;;;;;;5.13;4.73;;;12.10;99.90;;;;;;5076308;28;20202;-91
2022/10/27 00:09:34;;;;;;;4.70;4.30;;;12.00;99.90;;;;;;5075241;28;20262;-86
2022/10/27 00:11:59;;;;;;;5.03;4.63;;;12.00;99.90;;;;;;5057538;28;20285;-92
2022/10/27 00:14:25;;;;;;;5.43;4.73;;;12.10;99.90;;;;;;5076045;28;20622;-87
2022/10/27 00:16:53;;;;;;;5.10;4.60;;;12.10;99.90;;;;;;5057391;28;20607;-83
2022/10/27 00:19:20;;;;;;;4.67;4.33;;;12.10;99.90;;;;;;5076046;28;20174;-94
2022/10/27 00:21:46;;;;;;;4.97;4.43;;;12.10;99.90;;;;;;5076505;28;20199;-95
2022/10/27 00:24:12;;;;;;;4.70;4.23;;;12.00;99.90;;;;;;5058484;28;20186;-94
2022/10/27 00:26:38;;;;;;;4.23;3.83;;;12.10;99.90;;;;;;5058788;28;20179;-94
2022/10/27 00:29:04;;;;;;;7.20;3.90;;;12.00;99.90;;;;;;5076483;28;20181;-86
2022/10/27 00:31:29;;;;;;;4.20;3.80;;;12.00;99.90;;;;;;5075308;28;20194;-92
2022/10/27 00:33:55;;;;;;;6.23;4.17;;;11.90;99.90;;;;;;5075374;28;20179;-84
2022/10/27 00:36:22;;;;;;;4.37;3.97;;;11.90;99.90;;;;;;5075236;28;20242;-85
2022/10/27 00:38:51;;;;;;;6.80;4.00;;;11.90;99.90;;;;;;5076629;28;20175;-81
2022/10/27 00:41:34;;;;;;;6.63;3.90;;;12.00;99.90;;;;;;5086222;28;20164;-87
2022/10/27 00:44:21;;;;;;;4.30;4.00;;;11.90;99.90;;;;;;5098828;28;20173;-88
2022/10/27 00:46:47;;;;;;;4.40;4.00;;;11.90;99.90;;;;;;5082177;28;20190;-95
2022/10/27 00:49:21;;;;;;;4.00;3.70;;;11.80;99.90;;;;;;5081223;28;20185;-90
2022/10/27 00:51:57;;;;;;;4.73;4.33;;;11.80;99.90;;;;;;5091140;28;20244;-89
2022/10/27 00:54:27;;;;;;;5.27;3.90;;;11.90;99.90;;;;;;5063670;28;20615;-89
2022/10/27 00:56:54;;;;;;;4.30;3.90;;;11.90;99.90;;;;;;5058841;28;20194;-95
2022/10/27 00:59:21;;;;;;;3.67;3.40;;;11.80;99.90;;;;;;5075855;28;20651;-95
2022/10/27 01:01:49;;;;;;;4.00;3.70;;;11.80;99.90;;;;;;5075690;28;20261;-95
2022/10/27 01:04:23;;;;;;;4.00;3.73;;;11.80;99.90;;;;;;5057903;28;20179;-95
2022/10/27 01:06:50;;;;;;;4.03;3.60;;;11.80;99.90;;;;;;5075522;28;20181;-92
2022/10/27 01:09:16;;;;;;;4.00;3.70;;;11.80;99.90;;;;;;5075228;28;20185;-95
2022/10/27 01:11:42;;;;;;;4.00;3.67;;;11.90;99.90;;;;;;5057567;28;20171;-93
2022/10/27 01:14:08;;;;;;;3.70;3.50;;;11.80;99.90;;;;;;5087383;28;20258;-88
2022/10/27 01:17:03;;;;;;;4.07;3.77;;;11.70;99.90;;;;;;5090247;28;20247;-94
2022/10/27 01:20:17;;;;;;;3.57;3.27;;;11.80;99.90;;;;;;5044699;28;20205;-94
2022/10/27 01:23:21;;;;;;;3.50;3.20;;;11.70;99.90;;;;;;5020717;28;20268;-90
2022/10/27 01:26:42;;;;;;;6.57;3.80;;;11.70;99.90;;;;;;5074957;28;20529;-94
2022/10/27 01:29:26;;;;;;;3.87;3.50;;;11.70;99.90;;;;;;5020563;28;20700;-94
2022/10/27 01:32:02;;;;;;;3.63;3.43;;;11.60;99.90;;;;;;5030289;28;20248;-91
2022/10/27 01:34:48;;;;;;;3.73;3.50;;;11.60;99.90;;;;;;5016225;28;20236;-89
2022/10/27 01:37:16;;;;;;;5.87;4.60;;;11.60;99.90;;;;;;5013837;28;20207;-81
2022/10/27 01:40:07;;;;;;;6.43;3.50;;;11.50;99.90;;;;;;5011936;28;20704;-84
2022/10/27 01:42:54;;;;;;;4.00;3.10;;;11.40;99.90;;;;;;5014704;28;20171;-84
2022/10/27 01:45:28;;;;;;;3.73;3.43;;;11.50;99.90;;;;;;5013897;28;20163;-88
2022/10/27 01:47:58;;;;;;;3.97;3.57;;;11.50;99.90;;;;;;5013396;28;20258;-85
2022/10/27 01:50:31;;;;;;;3.47;3.17;;;11.50;99.90;;;;;;4999244;28;20184;-90
2022/10/27 01:52:57;;;;;;;4.00;3.30;;;11.50;99.90;;;;;;5013492;28;20286;-94
2022/10/27 01:55:25;;;;;;;3.77;3.47;;;11.40;99.90;;;;;;5013386;28;20181;-92
2022/10/27 01:58:17;;;;;;;3.73;3.40;;;11.40;99.90;;;;;;5012844;28;20775;-92
2022/10/27 02:00:59;;;;;;;3.43;3.17;;;11.30;99.90;;;;;;4983001;28;20181;-93
2022/10/27 02:03:37;;;;;;;3.43;3.13;;;11.30;99.90;;;;;;5052271;28;20645;-94
2022/10/27 02:06:34;;;;;;;3.67;3.37;;;11.40;99.90;;;;;;5074410;28;20159;-87
2022/10/27 02:09:24;;;;;;;3.37;3.17;;;11.40;99.90;;;;;;5074791;28;20159;-94
2022/10/27 02:11:53;;;;;;;3.40;3.20;;;11.30;99.90;;;;;;5074738;28;20210;-93
2022/10/27 02:14:19;;;;;;;3.50;3.20;;;11.30;99.90;;;;;;5074759;28;20250;-94
2022/10/27 02:16:51;;;;;;;3.17;2.90;;;11.30;99.90;;;;;;5074402;28;20320;-91
2022/10/27 02:19:34;;;;;;;3.43;3.00;;;11.30;99.90;;;;;;5074844;28;20550;-91
2022/10/27 02:22:02;;;;;;;3.40;3.20;;;11.30;99.90;;;;;;5074812;28;20166;-95
2022/10/27 02:24:29;;;;;;;3.63;3.30;;;11.40;99.90;;;;;;5075096;28;20175;-92
2022/10/27 02:27:04;;;;;;;3.13;2.83;;;11.40;99.90;;;;;;5057211;28;20181;-94
2022/10/27 02:29:37;;;;;;;3.03;2.83;;;11.30;99.90;;;;;;5076942;28;20185;-94
2022/10/27 02:32:10;;;;;;;3.30;3.10;;;11.30;99.90;;;;;;5095329;28;20190;-91
2022/10/27 02:34:37;;;;;;;4.57;3.10;;;11.30;99.90;;;;;;5096631;28;20162;-94
2022/10/27 02:37:04;;;;;;;3.20;3.00;;;11.40;99.90;;;;;;5059350;28;20566;-94
2022/10/27 02:39:30;;;;;;;4.20;3.00;;;11.30;99.90;;;;;;5058262;28;20173;-90
2022/10/27 02:41:56;;;;;;;3.10;2.90;;;11.20;99.90;;;;;;5056246;28;20201;-87
2022/10/27 02:44:21;;;;;;;3.20;2.97;;;11.10;99.90;;;;;;5074553;28;20167;-84
2022/10/27 02:46:47;;;;;;;4.27;3.03;;;11.00;99.90;;;;;;5073633;28;20195;-89
2022/10/27 02:49:13;;;;;;;2.97;2.77;;;11.00;99.90;;;;;;5073855;28;20180;-87
2022/10/27 02:51:39;;;;;;;3.37;3.07;;;11.00;99.90;;;;;;5055797;28;20231;-89
2022/10/27 02:54:05;;;;;;;3.43;3.00;;;11.00;99.90;;;;;;5073781;28;20656;-90
2022/10/27 02:56:30;;;;;;;2.57;2.47;;;11.10;99.90;;;;;;5073452;28;20169;-91
2022/10/27 02:58:56;;;;;;;5.73;2.97;;;11.20;99.90;;;;;;5081958;28;20199;-83
2022/10/27 03:01:24;;;;;;;3.10;2.90;;;11.20;99.90;;;;;;5083038;28;20224;-88
2022/10/27 03:03:49;;;;;;;3.60;2.93;;;11.20;99.90;;;;;;5057022;28;20179;-85
2022/10/27 03:06:15;;;;;;;3.47;3.03;;;11.20;99.90;;;;;;5073314;28;20203;-82
2022/10/27 03:08:41;;;;;;;3.13;2.93;;;11.20;99.90;;;;;;5073156;28;20169;-92
2022/10/27 03:11:07;;;;;;;3.03;2.83;;;11.30;99.90;;;;;;5073490;28;20206;-86
2022/10/27 03:13:33;;;;;;;2.67;2.40;;;11.20;99.90;;;;;;5077410;28;20414;-81
2022/10/27 03:15:58;;;;;;;3.00;2.70;;;11.30;99.90;;;;;;5079403;28;20202;-84
2022/10/27 03:18:24;;;;;;;3.10;2.80;;;11.20;99.90;;;;;;5078045;28;20677;-81
2022/10/27 03:20:50;;;;;;;3.17;2.63;;;11.20;99.90;;;;;;5061087;28;20178;-81
2022/10/27 03:23:16;;;;;;;3.20;2.90;;;11.20;99.90;;;;;;5077805;28;20232;-85
2022/10/27 03:25:44;;;;;;;3.07;2.80;;;11.20;99.90;;;;;;5075894;28;20186;-82
2022/10/27 03:28:11;;;;;;;3.00;2.70;;;11.20;99.90;;;;;;5057872;28;20216;-85
2022/10/27 03:30:37;;;;;;;3.20;2.50;;;11.20;99.90;;;;;;5081140;28;20175;-85
2022/10/27 03:33:03;;;;;;;2.80;2.60;;;11.20;99.90;;;;;;5091809;28;20210;-84
2022/10/27 03:35:29;;;;;;;3.00;2.77;;;11.20;99.90;;;;;;5080600;28;20168;-93
2022/10/27 03:37:57;;;;;;;2.70;2.50;;;11.10;99.90;;;;;;5076277;28;20171;-82
2022/10/27 03:40:23;;;;;;;3.00;2.43;;;11.10;99.90;;;;;;5078206;28;20177;-81
2022/10/27 03:42:49;;;;;;;2.63;2.43;;;11.20;99.90;;;;;;5078450;28;20258;-95
2022/10/27 03:45:15;;;;;;;2.87;2.67;;;11.20;99.90;;;;;;5077776;28;20286;-93
2022/10/27 03:47:42;;;;;;;2.83;2.63;;;11.20;99.90;;;;;;5081272;28;20179;-92
2022/10/27 03:50:08;;;;;;;2.60;2.40;;;11.20;99.90;;;;;;5086877;28;20178;-94
2022/10/27 03:52:34;;;;;;;2.67;2.37;;;11.20;99.90;;;;;;5077445;28;20227;-93
2022/10/27 03:55:00;;;;;;;3.00;2.80;;;11.20;99.90;;;;;;5077303;28;20526;-94
2022/10/27 03:57:26;;;;;;;3.20;3.00;;;11.20;99.90;;;;;;5077135;28;20179;-94
2022/10/27 03:59:51;;;;;;;3.83;2.83;;;11.20;99.90;;;;;;5077035;28;20175;-94
2022/10/27 04:02:17;;;;;;;3.00;2.80;;;11.10;99.90;;;;;;5076786;28;20173;-94
2022/10/27 04:04:43;;;;;;;2.80;2.60;;;11.20;99.90;;;;;;5076712;28;20178;-94
2022/10/27 04:07:09;;;;;;;3.13;2.93;;;11.20;99.90;;;;;;5076614;28;20246;-91
2022/10/27 04:09:35;;;;;;;2.67;2.53;;;11.20;99.90;;;;;;5080983;28;20253;-88
2022/10/27 04:12:01;;;;;;;2.90;2.70;;;11.30;99.90;;;;;;5079365;28;20228;-92
2022/10/27 04:14:27;;;;;;;2.53;2.33;;;11.30;99.90;;;;;;5076435;28;20172;-92
2022/10/27 04:16:52;;;;;;;2.70;2.50;;;11.30;99.90;;;;;;5058554;28;20227;-93
2022/10/27 04:19:19;;;;;;;5.30;2.50;;;11.40;99.90;;;;;;5078060;28;20167;-92
2022/10/27 04:21:45;;;;;;;3.37;2.90;;;11.40;99.90;;;;;;5097209;28;20175;-92
2022/10/27 04:24:11;;;;;;;2.90;2.63;;;11.40;99.90;;;;;;5098044;28;20193;-92
2022/10/27 04:26:38;;;;;;;3.03;2.87;;;11.40;99.90;;;;;;5078433;28;20171;-92
2022/10/27 04:29:04;;;;;;;4.50;3.10;;;11.40;99.90;;;;;;5059762;28;20189;-92
2022/10/27 04:31:31;;;;;;;3.57;3.27;;;11.40;99.90;;;;;;5081354;28;20254;-86
2022/10/27 04:33:57;;;;;;;3.93;3.63;;;11.30;99.90;;;;;;5085294;28;20183;-93
2022/10/27 04:36:24;;;;;;;5.43;3.53;;;11.30;99.90;;;;;;5077868;28;20175;-95
2022/10/27 04:38:50;;;;;;;3.40;3.20;;;11.30;99.90;;;;;;5059011;28;20186;-95
2022/10/27 04:41:16;;;;;;;3.50;3.00;;;11.40;99.90;;;;;;5076275;28;20630;-96
2022/10/27 04:43:42;;;;;;;3.57;3.10;;;11.40;99.90;;;;;;5094804;28;20187;-91
2022/10/27 04:46:08;;;;;;;3.20;2.90;;;11.40;99.90;;;;;;5089269;28;20185;-89
2022/10/27 04:48:34;;;;;;;3.37;3.10;;;11.40;99.90;;;;;;5089317;28;20182;-94
2022/10/27 04:51:00;;;;;;;3.97;3.40;;;11.40;99.90;;;;;;5059176;28;20171;-93
2022/10/27 04:53:26;;;;;;;5.23;3.50;;;11.40;99.90;;;;;;5057684;28;20583;-93
2022/10/27 04:55:53;;;;;;;4.07;3.73;;;11.40;99.90;;;;;;5076767;28;20181;-91
2022/10/27 04:58:19;;;;;;;3.70;3.40;;;11.40;99.90;;;;;;5079188;28;20562;-90
2022/10/27 05:00:47;;;;;;;3.30;3.10;;;11.30;99.90;;;;;;5086748;28;20167;-90
2022/10/27 05:03:14;;;;;;;5.40;4.33;;;11.30;99.90;;;;;;5059237;28;20216;-85
2022/10/27 05:05:39;;;;;;;4.70;4.30;;;11.40;99.90;;;;;;5077759;28;20279;-83
2022/10/27 05:08:05;;;;;;;5.90;4.63;;;11.30;99.90;;;;;;5074477;28;20642;-83
2022/10/27 05:10:33;;;;;;;5.00;4.60;;;11.20;99.90;;;;;;5074609;28;20175;-84
2022/10/27 05:12:59;;;;;;;6.57;4.70;;;11.20;99.90;;;;;;5053917;28;20216;-81
2022/10/27 05:15:25;;;;;;;5.67;4.80;;;11.10;99.90;;;;;;5073788;28;20173;-86
2022/10/27 05:17:51;;;;;;;10.43;5.70;;;11.00;99.90;;;;;;5073132;28;20172;-87
2022/10/27 05:20:17;;;;;;;5.83;5.27;;;11.10;99.90;;;;;;5073573;28;20179;-88
2022/10/27 05:22:43;;;;;;;7.90;5.50;;;11.10;99.90;;;;;;5073787;28;20617;-84
2022/10/27 05:25:10;;;;;;;6.10;5.50;;;11.00;99.90;;;;;;5079716;28;20173;-83
2022/10/27 05:27:37;;;;;;;6.37;5.40;;;11.10;99.90;;;;;;5074778;28;20167;-89
2022/10/27 05:30:04;;;;;;;6.27;5.67;;;11.00;99.90;;;;;;5074253;28;20285;-88
2022/10/27 05:32:30;;;;;;;6.07;5.47;;;11.00;99.90;;;;;;5073529;28;20211;-84
2022/10/27 05:34:56;;;;;;;6.13;5.07;;;10.90;99.90;;;;;;5072867;28;20255;-87
2022/10/27 05:37:23;;;;;;;6.37;5.70;;;11.00;99.90;;;;;;5073523;28;20205;-86
2022/10/27 05:39:48;;;;;;;6.63;6.03;;;10.90;99.90;;;;;;5073464;28;20222;-89
2022/10/27 05:42:14;;;;;;;8.13;5.83;;;10.90;99.90;;;;;;5072938;28;20175;-84
2022/10/27 05:44:40;;;;;;;5.73;5.07;;;10.90;99.90;;;;;;5073237;28;20171;-91
2022/10/27 05:47:06;;;;;;;6.63;5.70;;;10.90;99.90;;;;;;5073718;28;20174;-90
2022/10/27 05:49:32;;;;;;;8.43;5.73;;;10.90;99.90;;;;;;5055907;28;20209;-89
2022/10/27 05:51:58;;;;;;;5.63;5.10;;;10.90;99.90;;;;;;5074112;28;20226;-91
2022/10/27 05:54:25;;;;;;;6.37;5.77;;;10.90;99.90;;;;;;5076863;28;20231;-90
2022/10/27 05:56:50;;;;;;;8.30;5.77;;;10.90;99.90;;;;;;5078971;28;20258;-92
2022/10/27 05:59:16;;;;;;;18.37;5.40;;;10.90;99.90;;;;;;5074231;28;20228;-92
2022/10/27 06:01:45;;;;;;;7.13;5.30;;;10.90;99.90;;;;;;5074228;28;20177;-92
2022/10/27 06:04:11;;;;;;;5.93;4.90;;;11.00;99.90;;;;;;5073975;28;20574;-91
2022/10/27 06:06:39;;;;;;;5.80;5.30;;;11.00;99.90;;;;;;5073890;28;20206;-91
2022/10/27 06:09:05;;;;;;;8.67;4.90;;;11.00;99.90;;;;;;5074618;28;20198;-80
2022/10/27 06:11:31;;;;;;;7.43;4.97;;;11.00;99.90;;;;;;5095805;28;20167;-89
2022/10/27 06:13:57;;;;;;;5.30;4.90;;;11.00;99.90;;;;;;5098376;28;20221;-85
2022/10/27 06:16:26;;;;;;;6.93;5.20;;;11.00;99.90;;;;;;5090387;28;20199;-88
2022/10/27 06:18:52;;;;;;;6.30;4.90;;;11.10;99.90;;;;;;5074580;28;20181;-86
2022/10/27 06:21:21;;;;;;;5.47;4.90;;;11.10;99.90;;;;;;5074025;28;20212;-89
2022/10/27 06:23:48;;;;;;;7.67;4.70;;;11.10;99.90;;;;;;5073102;28;20170;-82
2022/10/27 06:26:14;;;;;;;5.60;5.10;;;11.20;99.90;;;;;;5072807;28;20535;-84
2022/10/27 06:28:39;;;;;;;7.63;5.30;;;11.20;99.90;;;;;;5078448;28;20246;-80
2022/10/27 06:31:05;;;;;;;6.47;5.37;;;11.20;99.90;;;;;;5075194;28;20213;-81
2022/10/27 06:33:31;;;;;;;8.27;5.30;;;11.20;99.90;;;;;;5073119;28;20633;-84
2022/10/27 06:35:57;;;;;;;7.70;5.27;;;11.40;99.90;;;;;;5072782;28;20649;-82
2022/10/27 06:38:23;;;;;;;6.30;5.70;;;11.40;99.90;;;;;;5073093;28;20179;-80
2022/10/27 06:40:49;;;;;;;6.50;5.83;;;11.40;99.90;;;;;;5073415;28;20179;-87
2022/10/27 06:43:15;;;;;;;9.27;6.00;;;11.50;99.90;;;;;;5073086;28;20176;-86
2022/10/27 06:45:46;;;;;;;9.90;5.60;;;11.40;99.90;;;;;;5081310;28;20173;-83
2022/10/27 06:48:11;;;;;;;8.67;5.33;;;11.50;99.90;;;;;;5082539;28;20181;-82
2022/10/27 06:50:37;;;;;;;8.43;5.63;;;11.60;99.90;;;;;;5065749;28;20199;-91
2022/10/27 06:53:04;;;;;;;8.50;5.97;;;11.60;99.90;;;;;;5078217;28;20266;-90
2022/10/27 06:55:30;;;;;;;6.87;5.87;;;11.60;99.90;;;;;;5059719;28;20183;-90
2022/10/27 06:57:57;;;;;;;8.00;5.87;;;11.70;99.90;;;;;;5076561;28;20171;-81
2022/10/27 07:00:23;;;;;;;8.63;5.63;;;11.80;99.90;;;;;;5076171;28;20179;-82
2022/10/27 07:02:49;;;;;;;7.70;5.77;;;11.80;99.90;;;;;;5076654;28;20182;-89
2022/10/27 07:05:15;;;;;;;6.97;5.70;;;11.90;99.90;;;;;;5076429;28;20175;-89
2022/10/27 07:07:48;;;;;;;7.20;5.80;;;12.00;99.90;;;;;;5076757;28;20194;-87
2022/10/27 07:10:15;;;;;;;8.63;6.27;;;12.00;99.90;;;;;;5076828;28;20626;-83
2022/10/27 07:13:01;;;;;;;7.63;6.47;;;12.10;99.90;;;;;;5076948;28;20677;-87
2022/10/27 07:15:31;;;;;;;8.40;6.17;;;12.20;99.90;;;;;;5077737;28;20169;-90
2022/10/27 07:18:07;;;;;;;7.40;6.60;;;12.30;99.90;;;;;;5076823;28;20163;-85
2022/10/27 07:20:35;;;;;;;6.73;5.77;;;12.30;99.90;;;;;;5076766;28;20167;-88
2022/10/27 07:23:01;;;;;;;9.43;5.80;;;12.40;99.90;;;;;;5058247;28;20175;-91
2022/10/27 07:25:28;;;;;;;9.80;6.60;;;12.50;99.90;;;;;;5076228;28;20186;-90
2022/10/27 07:27:54;;;;;;;13.30;7.07;;;12.50;99.90;;;;;;5076122;28;20175;-84
2022/10/27 07:30:26;;;;;;;10.83;7.10;;;12.60;99.90;;;;;;5076640;28;20178;-84
2022/10/27 07:32:52;;;;;;;12.10;7.70;;;12.60;99.90;;;;;;5058119;28;20546;-90
2022/10/27 07:35:18;;;;;;;9.90;8.43;;;12.60;99.90;;;;;;5075496;28;20262;-83
2022/10/27 07:37:47;;;;;;;16.07;10.63;;;12.70;99.90;;;;;;5075946;28;20182;-85
2022/10/27 07:40:15;;;;;;;16.63;8.90;;;12.80;99.90;;;;;;5076013;28;20178;-84
2022/10/27 07:42:45;;;;;;;9.67;7.57;;;12.80;99.90;;;;;;5057653;28;20174;-86
2022/10/27 07:45:12;;;;;;;15.50;8.17;;;12.80;99.90;;;;;;5076045;28;20163;-84
2022/10/27 07:47:45;;;;;;;12.50;8.10;;;13.00;99.90;;;;;;5075680;28;20178;-83
2022/10/27 07:50:12;;;;;;;14.83;8.17;;;13.00;99.90;;;;;;5075406;28;20205;-82
2022/10/27 07:52:45;;;;;;;9.53;7.13;;;13.00;99.90;;;;;;5075306;28;20682;-84
2022/10/27 07:55:13;;;;;;;8.27;7.07;;;13.10;99.90;;;;;;5075230;28;20638;-86
2022/10/27 07:57:39;;;;;;;14.57;7.80;;;13.20;99.90;;;;;;5078634;28;20167;-88
2022/10/27 08:00:10;;;;;;;9.10;7.57;;;13.20;99.90;;;;;;5077760;28;20165;-89
2022/10/27 08:02:36;;;;;;;7.47;6.77;;;13.20;99.90;;;;;;5089067;28;20167;-88
2022/10/27 08:05:02;;;;;;;10.17;6.97;;;13.30;99.90;;;;;;5088163;28;20668;-90
2022/10/27 08:07:28;;;;;;;11.00;7.33;;;13.40;99.90;;;;;;5076383;28;20680;-88
2022/10/27 08:09:56;;;;;;;8.07;7.23;;;13.40;99.90;;;;;;5081117;28;20175;-88
2022/10/27 08:12:23;;;;;;;11.17;7.50;;;13.50;99.90;;;;;;5086319;28;20209;-90
2022/10/27 08:14:53;;;;;;;14.23;7.40;;;13.50;99.90;;;;;;5049175;28;20187;-82
2022/10/27 08:17:27;;;;;;;12.03;6.93;;;13.60;99.90;;;;;;5060303;28;20175;-92
2022/10/27 08:19:57;;;;;;;11.63;8.33;;;13.70;99.90;;;;;;5058592;28;20249;-91
2022/10/27 08:22:26;;;;;;;9.93;7.57;;;13.80;99.90;;;;;;5075951;28;20167;-83
2022/10/27 08:24:52;;;;;;;10.07;7.07;;;13.80;99.90;;;;;;5040965;28;20220;-91
2022/10/27 08:27:17;;;;;;;11.40;7.27;;;13.80;99.90;;;;;;5076301;28;20225;-92
2022/10/27 08:29:43;;;;;;;14.30;7.30;;;13.90;99.90;;;;;;5086645;28;20188;-91
2022/10/27 08:32:09;;;;;;;9.43;6.97;;;14.00;99.90;;;;;;5080733;28;20242;-92
2022/10/27 08:34:36;;;;;;;12.73;7.13;;;14.20;99.90;;;;;;5060495;28;20655;-84
2022/10/27 08:37:08;;;;;;;11.50;7.67;;;14.20;99.90;;;;;;5056998;28;20179;-86
2022/10/27 08:39:39;;;;;;;13.33;7.07;;;14.30;99.90;;;;;;5041444;28;20191;-85
2022/10/27 08:42:26;;;;;;;8.20;6.37;;;14.40;99.90;;;;;;5056923;28;20220;-84
2022/10/27 08:45:18;;;;;;;12.80;6.60;;;14.50;99.90;;;;;;5074776;28;20220;-86
2022/10/27 08:47:45;;;;;;;10.80;6.87;;;14.60;99.90;;;;;;5056301;28;20180;-91
2022/10/27 08:50:20;;;;;;;11.43;7.07;;;14.70;99.90;;;;;;5056330;28;20364;-86
2022/10/27 08:52:53;;;;;;;8.43;6.27;;;14.80;99.90;;;;;;5073981;28;20222;-90
2022/10/27 08:55:29;;;;;;;9.00;6.57;;;14.90;99.90;;;;;;5078412;28;20170;-85
2022/10/27 08:58:06;;;;;;;7.33;5.87;;;15.10;99.90;;;;;;5077515;28;20618;-84
2022/10/27 09:00:53;;;;;;;10.13;5.73;;;15.30;99.90;;;;;;5074307;28;20626;-85
2022/10/27 09:03:40;;;;;;;6.93;5.47;;;15.30;99.90;;;;;;5074200;28;20151;-85
2022/10/27 09:06:22;;;;;;;4.13;3.80;;;15.40;99.90;;;;;;5073727;28;20163;-82
2022/10/27 09:09:19;;;;;;;3.63;3.33;;;15.50;99.90;;;;;;5054874;28;20641;-84
2022/10/27 09:11:57;;;;;;;3.80;3.50;;;15.70;99.90;;;;;;5073571;28;20194;-83
2022/10/27 09:14:52;;;;;;;4.00;3.47;;;15.90;99.90;;;;;;5073635;28;20685;-84
2022/10/27 09:17:32;;;;;;;3.70;3.43;;;16.20;99.90;;;;;;5055646;28;20179;-84
2022/10/27 09:20:26;;;;;;;5.00;3.60;;;16.20;99.90;;;;;;5055548;28;20228;-83
2022/10/27 09:23:00;;;;;;;4.20;3.50;;;16.20;99.90;;;;;;5050706;28;20191;-82
2022/10/27 09:25:28;;;;;;;3.60;3.33;;;16.30;99.90;;;;;;5055259;28;20650;-86
2022/10/27 09:27:59;;;;;;;3.80;3.50;;;16.40;99.90;;;;;;5074096;28;20187;-89
2022/10/27 09:30:31;;;;;;;4.83;3.77;;;16.40;99.90;;;;;;5055698;28;20179;-85
2022/10/27 09:32:57;;;;;;;4.10;3.80;;;16.40;99.90;;;;;;5073698;28;20222;-87
2022/10/27 09:35:27;;;;;;;4.63;4.03;;;16.40;99.90;;;;;;5073475;28;20663;-90
2022/10/27 09:37:56;;;;;;;5.57;4.50;;;16.40;99.90;;;;;;5073739;28;20165;-87
2022/10/27 09:40:24;;;;;;;5.47;4.83;;;16.60;99.90;;;;;;5073577;28;20167;-86
2022/10/27 09:42:53;;;;;;;5.67;4.70;;;16.70;99.90;;;;;;5075908;28;20178;-88
2022/10/27 09:45:21;;;;;;;6.67;4.77;;;16.60;99.90;;;;;;5074936;28;20174;-84
2022/10/27 09:47:53;;;;;;;5.43;4.90;;;16.60;99.90;;;;;;5075271;28;20186;-86
2022/10/27 09:50:24;;;;;;;7.00;5.07;;;16.60;99.90;;;;;;5079171;28;20171;-83
2022/10/27 09:52:50;;;;;;;7.60;5.30;;;16.70;99.90;;;;;;5074336;28;20226;-88
2022/10/27 09:55:17;;;;;;;7.27;5.17;;;16.80;99.90;;;;;;5074571;28;20176;-87
2022/10/27 09:57:45;;;;;;;6.77;4.70;;;16.80;99.90;;;;;;5070070;28;20172;-90
2022/10/27 10:00:20;;;;;;;5.57;4.70;;;16.80;99.90;;;;;;5073233;28;20172;-91
2022/10/27 10:03:04;;;;;;;5.07;4.63;;;16.90;99.90;;;;;;5055943;28;20638;-84
2022/10/27 10:05:35;;;;;;;5.20;4.10;;;17.00;99.90;;;;;;5053850;28;20164;-88
2022/10/27 10:08:22;;;;;;;4.40;4.00;;;17.10;99.90;;;;;;5052992;28;20313;-87
2022/10/27 10:10:57;;;;;;;5.87;4.47;;;17.20;99.90;;;;;;5052925;28;20172;-85
2022/10/27 10:13:24;;;;;;;5.03;3.93;;;17.20;99.90;;;;;;5053208;28;20677;-84
2022/10/27 10:16:10;;;;;;;4.83;3.83;;;17.20;99.90;;;;;;5054973;28;20175;-82
2022/10/27 10:18:42;;;;;;;6.50;4.87;;;17.30;99.90;;;;;;5055464;28;20710;-84
2022/10/27 10:21:11;;;;;;;3.90;3.60;;;17.40;99.90;;;;;;5054328;28;20255;-84
2022/10/27 10:23:50;;;;;;;5.33;3.40;;;17.50;99.90;;;;;;5057029;28;20653;-81
2022/10/27 10:26:22;;;;;;;4.27;3.17;;;17.50;99.90;;;;;;5055672;28;20238;-83
2022/10/27 10:28:51;;;;;;;3.97;3.30;;;17.50;99.90;;;;;;5056820;28;20199;-81
2022/10/27 10:31:27;;;;;;;4.80;3.17;;;17.60;99.90;;;;;;5055222;28;20186;-81
2022/10/27 10:34:02;;;;;;;5.67;3.30;;;17.60;99.90;;;;;;5054681;28;20210;-91
2022/10/27 10:36:39;;;;;;;5.03;3.50;;;17.70;99.90;;;;;;5055356;28;20171;-83
2022/10/27 10:39:25;;;;;;;9.30;4.47;;;17.70;99.90;;;;;;5056647;28;20167;-85
2022/10/27 10:42:09;;;;;;;5.23;3.87;;;17.80;99.90;;;;;;5056797;28;20163;-90
2022/10/27 10:44:36;;;;;;;3.80;3.10;;;17.80;99.90;;;;;;5056554;28;20175;-87
2022/10/27 10:47:02;;;;;;;3.90;3.07;;;17.70;99.90;;;;;;5055926;28;20171;-87
2022/10/27 10:49:31;;;;;;;5.60;2.80;;;17.70;99.90;;;;;;5055604;28;20180;-90
2022/10/27 10:52:14;;;;;;;3.47;2.90;;;17.80;99.90;;;;;;5065636;28;20219;-84
2022/10/27 10:54:43;;;;;;;3.73;2.63;;;17.90;99.90;;;;;;5078114;28;20166;-86
2022/10/27 10:57:35;;;;;;;2.90;2.60;;;17.90;99.90;;;;;;5076817;28;20262;-84
2022/10/27 11:00:04;;;;;;;2.90;2.40;;;18.00;99.90;;;;;;5065233;28;20179;-89
2022/10/27 11:02:31;;;;;;;6.00;3.43;;;18.10;99.90;;;;;;5076271;28;20198;-84
2022/10/27 11:05:10;;;;;;;3.20;2.90;;;18.10;99.90;;;;;;5076167;28;20179;-89
2022/10/27 11:07:37;;;;;;;4.70;3.07;;;18.10;99.90;;;;;;5076291;28;20513;-83
2022/10/27 11:10:24;;;;;;;5.23;3.10;;;18.10;99.90;;;;;;5076032;28;20206;-86
2022/10/27 11:13:16;;;;;;;2.93;2.43;;;18.10;99.90;;;;;;5076713;28;20333;-87
2022/10/27 11:15:44;;;;;;;3.50;3.00;;;18.10;99.90;;;;;;5060022;28;20179;-82
2022/10/27 11:18:44;;;;;;;3.77;2.80;;;18.10;99.90;;;;;;5059116;28;20270;-84
2022/10/27 11:21:37;;;;;;;2.53;2.30;;;18.20;99.90;;;;;;5075960;28;20233;-90
2022/10/27 11:24:43;;;;;;;3.03;2.73;;;18.30;99.90;;;;;;5075839;28;20247;-88
2022/10/27 11:27:21;;;;;;;4.00;3.70;;;18.30;99.90;;;;;;4974854;28;20189;-89
2022/10/27 11:30:23;;;;;;;2.67;2.47;;;18.40;99.90;;;;;;5048405;28;20182;-88
2022/10/27 11:33:22;;;;;;;3.53;3.23;;;18.50;99.90;;;;;;5083608;28;20201;-90
2022/10/27 11:36:06;;;;;;;2.87;2.67;;;18.50;99.90;;;;;;5076375;28;20162;-88
2022/10/27 11:38:42;;;;;;;2.27;1.80;;;18.60;99.90;;;;;;5081333;28;20191;-89
2022/10/27 11:41:55;;;;;;;2.73;2.40;;;18.70;99.90;;;;;;5082986;28;20174;-87
2022/10/27 11:44:27;;;;;;;4.03;2.60;;;18.70;99.90;;;;;;5073865;28;20178;-84
2022/10/27 11:47:25;;;;;;;2.20;2.10;;;18.60;99.90;;;;;;5092649;28;20208;-92
2022/10/27 11:50:02;;;;;;;4.03;2.87;;;18.60;99.90;;;;;;5077372;28;20171;-92
2022/10/27 11:52:52;;;;;;;3.37;2.57;;;18.60;99.90;;;;;;5076715;28;20218;-91
2022/10/27 11:55:23;;;;;;;2.47;2.27;;;18.60;99.90;;;;;;5079927;28;20159;-90
2022/10/27 11:58:00;;;;;;;5.57;2.00;;;18.70;99.90;;;;;;5080687;28;20151;-91
2022/10/27 12:00:28;;;;;;;2.30;2.10;;;18.70;99.90;;;;;;5078133;28;20167;-92
2022/10/27 12:03:31;;;;;;;2.10;1.90;;;18.70;99.90;;;;;;5078865;28;20280;-86
2022/10/27 12:06:07;;;;;;;2.10;1.97;;;18.70;99.90;;;;;;5075320;28;20171;-90
2022/10/27 12:08:48;;;;;;;3.50;2.20;;;18.80;99.90;;;;;;5075600;28;20242;-92
2022/10/27 12:11:43;;;;;;;2.80;2.60;;;18.90;99.90;;;;;;5076939;28;20547;-86
2022/10/27 12:14:32;;;;;;;2.10;2.00;;;18.90;99.90;;;;;;5075317;28;20677;-90
2022/10/27 12:17:16;;;;;;;1.70;1.60;;;18.80;99.90;;;;;;5056784;28;20169;-82
2022/10/27 12:19:44;;;;;;;2.50;2.30;;;18.90;99.90;;;;;;5074708;28;20167;-84
2022/10/27 12:22:25;;;;;;;2.37;1.97;;;18.90;99.90;;;;;;5074720;28;20261;-84
2022/10/27 12:25:07;;;;;;;2.50;2.03;;;19.00;99.90;;;;;;5074667;28;20213;-86
2022/10/27 12:27:35;;;;;;;3.43;1.87;;;19.00;99.90;;;;;;5074629;28;20159;-83
2022/10/27 12:30:16;;;;;;;2.73;1.70;;;19.10;99.90;;;;;;5074562;28;20243;-88
2022/10/27 12:32:56;;;;;;;2.17;2.00;;;19.00;99.90;;;;;;5056630;28;20207;-91
2022/10/27 12:35:58;;;;;;;2.60;2.10;;;19.10;99.90;;;;;;5074350;28;20156;-88
2022/10/27 12:38:40;;;;;;;3.57;3.27;;;19.10;99.90;;;;;;5074691;28;20249;-85
2022/10/27 12:41:30;;;;;;;2.40;2.30;;;19.10;99.90;;;;;;5058230;28;20171;-87
2022/10/27 12:44:21;;;;;;;2.50;1.70;;;19.10;99.90;;;;;;5074960;28;20172;-87
2022/10/27 12:47:08;;;;;;;2.27;1.50;;;19.10;99.90;;;;;;5057025;28;20175;-90
2022/10/27 12:49:42;;;;;;;1.50;1.40;;;19.20;99.90;;;;;;5075299;28;20167;-90
2022/10/27 12:52:18;;;;;;;2.30;1.70;;;19.20;99.90;;;;;;5074970;28;20222;-82
2022/10/27 12:55:19;;;;;;;1.90;1.73;;;19.20;99.90;;;;;;5057968;28;20195;-81
2022/10/27 12:57:54;;;;;;;1.80;1.60;;;19.20;99.90;;;;;;5041383;28;20190;-82
2022/10/27 13:00:22;;;;;;;1.67;1.57;;;19.20;99.90;;;;;;5076695;28;20155;-84
2022/10/27 13:03:22;;;;;;;1.80;1.70;;;19.20;99.90;;;;;;5074795;28;20232;-83
2022/10/27 13:06:06;;;;;;;1.80;1.70;;;19.10;99.90;;;;;;5074134;28;20245;-83
2022/10/27 13:08:50;;;;;;;2.50;1.70;;;19.10;99.90;;;;;;5056638;28;20171;-83
2022/10/27 13:11:28;;;;;;;1.97;1.77;;;19.10;99.90;;;;;;5062676;28;20639;-89
2022/10/27 13:14:22;;;;;;;3.20;1.70;;;19.10;99.90;;;;;;5074381;28;20199;-90